createdAt,value
2019-03-30T10:59:07.876Z,22.80
2019-03-30T11:01:35.821Z,22.70
2019-03-30T11:21:40.333Z,22.60
2019-03-30T11:24:09.385Z,21.00
2019-03-30T11:26:38.264Z,20.20
2019-03-30T11:29:07.057Z,20.00
2019-03-30T11:31:36.154Z,20.00
2019-03-30T11:34:05.481Z,20.10
2019-03-30T11:36:34.596Z,19.30
2019-03-30T11:39:04.747Z,18.90
2019-03-30T11:41:33.674Z,19.20
2019-03-30T11:44:02.642Z,19.60
2019-03-30T11:46:31.802Z,19.70
2019-03-30T11:49:00.541Z,19.80
2019-03-30T11:51:29.273Z,19.90
2019-03-30T11:53:58.204Z,19.50
2019-03-30T11:56:27.499Z,19.70
2019-03-30T11:58:56.424Z,20.10
2019-03-30T12:01:25.214Z,20.30
2019-03-30T12:03:54.009Z,20.40
2019-03-30T12:06:23.386Z,20.70
2019-03-30T12:08:52.293Z,20.50
2019-03-30T12:11:21.265Z,20.70
2019-03-30T12:13:50.509Z,20.80
2019-03-30T12:16:19.468Z,21.20
2019-03-30T12:18:48.250Z,20.90
2019-03-30T12:21:17.395Z,20.50
2019-03-30T12:23:46.121Z,20.10
2019-03-30T12:26:14.853Z,20.30
2019-03-30T12:28:43.892Z,20.30
2019-03-30T12:31:12.682Z,21.00
2019-03-30T12:33:41.499Z,21.10
2019-03-30T12:36:10.184Z,21.40
2019-03-30T12:38:39.004Z,21.50
2019-03-30T12:41:07.857Z,21.80
2019-03-30T12:43:39.186Z,21.80
2019-03-30T12:46:08.166Z,21.60
2019-03-30T12:48:37.023Z,21.70
2019-03-30T12:51:06.104Z,21.70
2019-03-30T12:53:49.015Z,21.60
2019-03-30T12:56:08.825Z,21.60
2019-03-30T12:58:36.728Z,21.70
2019-03-30T13:01:05.632Z,22.00
2019-03-30T13:03:34.542Z,22.00
2019-03-30T13:06:03.398Z,22.10
2019-03-30T13:08:32.148Z,22.00
2019-03-30T13:11:00.931Z,22.10
2019-03-30T13:13:30.030Z,22.20
2019-03-30T13:15:58.895Z,22.20
2019-03-30T13:18:27.746Z,21.80
2019-03-30T13:20:56.747Z,21.60
2019-03-30T13:23:25.490Z,21.70
2019-03-30T13:26:03.637Z,21.70
2019-03-30T13:28:25.262Z,21.70
2019-03-30T13:30:54.126Z,21.40
2019-03-30T13:33:23.057Z,20.80
2019-03-30T13:35:52.186Z,20.90
2019-03-30T13:38:21.257Z,21.30
2019-03-30T13:40:50.229Z,21.70
2019-03-30T13:43:18.926Z,21.70
2019-03-30T13:45:47.679Z,21.60
2019-03-30T13:48:16.533Z,21.60
2019-03-30T13:50:45.314Z,21.70
2019-03-30T13:53:14.118Z,21.20
2019-03-30T13:55:43.072Z,21.40
2019-03-30T13:58:11.704Z,21.80
2019-03-30T14:00:40.907Z,22.00
2019-03-30T14:03:09.613Z,22.00
2019-03-30T14:05:38.609Z,22.00
2019-03-30T14:08:07.444Z,22.00
2019-03-30T14:10:38.842Z,21.10
2019-03-30T14:13:07.546Z,20.80
2019-03-30T14:15:36.386Z,20.90
2019-03-30T14:18:05.250Z,21.10
2019-03-30T14:20:34.072Z,21.40
2019-03-30T14:23:02.761Z,21.30
2019-03-30T14:25:31.543Z,21.60
2019-03-30T14:28:00.505Z,21.90
2019-03-30T14:30:29.753Z,22.10
2019-03-30T14:32:58.912Z,22.20
2019-03-30T14:35:27.700Z,22.30
2019-03-30T14:37:56.492Z,22.10
2019-03-30T14:40:25.241Z,21.80
2019-03-30T14:42:54.056Z,21.70
2019-03-30T14:45:22.861Z,21.90
2019-03-30T14:47:51.527Z,21.90
2019-03-30T14:50:22.559Z,21.90
2019-03-30T14:52:51.559Z,22.10
2019-03-30T14:55:20.311Z,22.20
2019-03-30T14:57:49.511Z,22.30
2019-03-30T15:00:18.365Z,22.20
2019-03-30T15:02:47.312Z,22.30
2019-03-30T15:05:16.450Z,22.30
2019-03-30T15:07:45.444Z,22.40
2019-03-30T15:10:14.497Z,22.30
2019-03-30T15:12:43.482Z,22.00
2019-03-30T15:15:13.793Z,21.90
2019-03-30T15:17:42.518Z,22.00
2019-03-30T15:20:11.776Z,22.10
2019-03-30T15:22:40.654Z,22.20
2019-03-30T15:25:10.781Z,22.10
2019-03-30T15:27:39.456Z,22.10
2019-03-30T15:30:09.273Z,21.80
2019-03-30T15:32:38.123Z,21.40
2019-03-30T15:35:08.529Z,21.20
2019-03-30T15:37:37.451Z,21.30
2019-03-30T15:40:06.521Z,21.50
2019-03-30T15:42:35.365Z,21.60
2019-03-30T15:45:04.717Z,21.70
2019-03-30T15:47:33.559Z,21.60
2019-03-30T15:50:02.347Z,21.40
2019-03-30T15:52:31.067Z,21.30
2019-03-30T15:54:59.755Z,21.20
2019-03-30T15:57:28.968Z,21.20
2019-03-30T15:59:57.712Z,21.30
2019-03-30T16:02:26.678Z,21.30
2019-03-30T16:04:55.471Z,21.20
2019-03-30T16:07:24.355Z,21.10
2019-03-30T16:09:53.198Z,21.10
2019-03-30T16:12:22.423Z,21.00
2019-03-30T16:14:51.428Z,20.80
2019-03-30T16:17:20.404Z,20.60
2019-03-30T16:19:49.272Z,20.50
2019-03-30T16:22:17.985Z,20.40
2019-03-30T16:24:46.776Z,20.50
2019-03-30T16:27:28.062Z,20.60
2019-03-30T16:29:46.369Z,20.80
2019-03-30T16:32:15.902Z,20.80
2019-03-30T16:34:44.592Z,20.80
2019-03-30T16:37:13.442Z,20.90
2019-03-30T16:39:42.469Z,20.90
2019-03-30T16:42:11.337Z,20.90
2019-03-30T16:44:40.068Z,20.80
2019-03-30T16:47:08.828Z,20.70
2019-03-30T16:49:37.681Z,20.60
2019-03-30T16:52:06.614Z,20.60
2019-03-30T16:54:35.983Z,20.50
2019-03-30T16:57:05.000Z,20.50
2019-03-30T16:59:33.813Z,20.40
2019-03-30T17:02:02.987Z,20.20
2019-03-30T17:04:32.004Z,20.10
2019-03-30T17:07:01.058Z,20.00
2019-03-30T17:09:29.931Z,19.80
2019-03-30T17:11:58.796Z,19.60
2019-03-30T17:14:27.894Z,19.50
2019-03-30T17:16:56.733Z,19.40
2019-03-30T17:19:25.670Z,19.30
2019-03-30T17:21:54.588Z,19.30
2019-03-30T17:24:23.343Z,19.20
2019-03-30T17:26:52.233Z,19.00
2019-03-30T17:29:21.529Z,18.80
2019-03-30T17:31:50.244Z,18.90
2019-03-30T17:34:19.156Z,18.60
2019-03-30T17:36:48.377Z,18.60
2019-03-30T17:39:17.447Z,18.60
2019-03-30T17:41:46.703Z,18.50
2019-03-30T17:44:15.869Z,18.30
2019-03-30T17:46:44.694Z,18.10
2019-03-30T17:49:13.851Z,17.80
2019-03-30T17:51:42.738Z,17.60
2019-03-30T17:54:11.857Z,17.40
2019-03-30T17:56:40.667Z,17.10
2019-03-30T17:59:09.727Z,16.80
2019-03-30T18:01:38.705Z,16.60
2019-03-30T18:04:07.445Z,16.40
2019-03-30T18:06:36.351Z,16.20
2019-03-30T18:09:06.037Z,16.00
2019-03-30T18:11:34.872Z,15.70
2019-03-30T18:14:03.665Z,15.60
2019-03-30T18:16:32.658Z,15.80
2019-03-30T18:19:01.889Z,15.70
2019-03-30T18:21:30.672Z,15.50
2019-03-30T18:23:59.871Z,15.20
2019-03-30T18:26:28.572Z,15.00
2019-03-30T18:28:57.470Z,14.80
2019-03-30T18:31:26.422Z,14.90
2019-03-30T18:33:55.138Z,15.00
2019-03-30T18:36:25.986Z,14.80
2019-03-30T18:39:08.722Z,14.80
2019-03-30T18:41:28.617Z,14.80
2019-03-30T18:43:57.432Z,14.70
2019-03-30T18:46:26.350Z,14.60
2019-03-30T18:48:55.032Z,14.50
2019-03-30T18:51:23.886Z,14.40
2019-03-30T18:53:54.476Z,14.30
2019-03-30T18:56:23.232Z,14.00
2019-03-30T18:58:52.166Z,13.90
2019-03-30T19:01:21.006Z,13.70
2019-03-30T19:03:49.942Z,13.80
2019-03-30T19:06:18.879Z,13.80
2019-03-30T19:08:47.806Z,13.50
2019-03-30T19:11:16.492Z,13.60
2019-03-30T19:13:45.837Z,13.80
2019-03-30T19:16:14.686Z,13.50
2019-03-30T19:18:43.530Z,13.40
2019-03-30T19:21:12.410Z,13.40
2019-03-30T19:23:41.221Z,13.30
2019-03-30T19:26:09.952Z,13.50
2019-03-30T19:28:38.814Z,13.20
2019-03-30T19:31:07.613Z,13.20
2019-03-30T19:33:36.421Z,13.00
2019-03-30T19:36:05.394Z,12.80
2019-03-30T19:38:34.463Z,12.70
2019-03-30T19:41:03.241Z,12.60
2019-03-30T19:43:32.126Z,12.80
2019-03-30T19:46:01.042Z,12.80
2019-03-30T19:48:29.967Z,12.60
2019-03-30T19:50:58.925Z,12.60
2019-03-30T19:53:27.753Z,12.70
2019-03-30T19:55:56.671Z,12.70
2019-03-30T19:58:25.745Z,12.70
2019-03-30T20:00:54.590Z,12.50
2019-03-30T20:03:23.676Z,12.40
2019-03-30T20:05:52.494Z,12.20
2019-03-30T20:08:21.249Z,12.10
2019-03-30T20:10:50.016Z,12.20
2019-03-30T20:13:19.316Z,12.20
2019-03-30T20:15:48.381Z,12.30
2019-03-30T20:18:17.322Z,12.20
2019-03-30T20:20:46.105Z,11.90
2019-03-30T20:23:16.113Z,11.80
2019-03-30T20:25:45.012Z,11.90
2019-03-30T20:28:13.842Z,11.90
2019-03-30T20:30:42.685Z,11.80
2019-03-30T20:33:11.571Z,11.80
2019-03-30T20:35:40.478Z,12.00
2019-03-30T20:38:09.361Z,12.10
2019-03-30T20:40:38.544Z,11.90
2019-03-30T20:43:07.520Z,11.80
2019-03-30T20:45:36.635Z,11.70
2019-03-30T20:48:05.576Z,11.60
2019-03-30T20:50:34.693Z,11.60
2019-03-30T20:53:03.571Z,11.70
2019-03-30T20:55:34.055Z,11.70
2019-03-30T20:58:03.316Z,11.70
2019-03-30T21:00:32.187Z,11.60
2019-03-30T21:03:00.992Z,11.50
2019-03-30T21:05:30.086Z,11.50
2019-03-30T21:07:58.868Z,11.70
2019-03-30T21:10:28.031Z,11.50
2019-03-30T21:12:56.766Z,11.40
2019-03-30T21:15:25.496Z,11.50
2019-03-30T21:17:54.366Z,11.20
2019-03-30T21:20:23.224Z,11.10
2019-03-30T21:22:51.993Z,11.20
2019-03-30T21:25:20.722Z,11.20
2019-03-30T21:27:49.506Z,11.20
2019-03-30T21:30:18.575Z,11.00
2019-03-30T21:32:47.361Z,11.00
2019-03-30T21:35:16.232Z,11.00
2019-03-30T21:37:45.385Z,10.90
2019-03-30T21:40:15.725Z,10.90
2019-03-30T21:42:44.468Z,11.00
2019-03-30T21:45:13.623Z,11.00
2019-03-30T21:47:42.567Z,11.00
2019-03-30T21:50:11.369Z,10.90
2019-03-30T21:52:40.456Z,10.80
2019-03-30T21:55:09.278Z,10.70
2019-03-30T21:57:38.365Z,10.50
2019-03-30T22:00:11.133Z,10.80
2019-03-30T22:02:39.262Z,10.80
2019-03-30T22:05:08.367Z,10.80
2019-03-30T22:07:37.499Z,10.70
2019-03-30T22:10:08.528Z,10.60
2019-03-30T22:12:41.579Z,10.50
2019-03-30T22:15:12.368Z,10.30
2019-03-30T22:17:41.574Z,10.20
2019-03-30T22:20:10.449Z,10.10
2019-03-30T22:22:39.271Z,10.10
2019-03-30T22:25:08.272Z,10.30
2019-03-30T22:27:37.110Z,10.40
2019-03-30T22:30:07.755Z,10.40
2019-03-30T22:32:36.865Z,10.60
2019-03-30T22:35:05.672Z,10.40
2019-03-30T22:37:34.508Z,10.30
2019-03-30T22:40:03.569Z,10.40
2019-03-30T22:42:32.507Z,10.20
2019-03-30T22:45:01.378Z,10.20
2019-03-30T22:47:30.268Z,10.20
2019-03-30T22:49:59.260Z,10.30
2019-03-30T22:52:28.215Z,10.20
2019-03-30T22:54:57.215Z,10.20
2019-03-30T22:57:26.096Z,10.00
2019-03-30T22:59:55.031Z,10.00
2019-03-30T23:02:24.155Z,10.00
2019-03-30T23:04:52.942Z,10.00
2019-03-30T23:07:22.107Z,9.90
2019-03-30T23:09:50.960Z,9.90
2019-03-30T23:12:19.780Z,10.00
2019-03-30T23:14:48.667Z,10.00
2019-03-30T23:17:17.394Z,9.80
2019-03-30T23:19:46.097Z,9.70
2019-03-30T23:22:14.944Z,9.60
2019-03-30T23:24:43.973Z,9.50
2019-03-30T23:27:12.783Z,9.50
2019-03-30T23:29:41.511Z,9.60
2019-03-30T23:32:10.636Z,9.70
2019-03-30T23:34:39.347Z,9.60
2019-03-30T23:37:08.134Z,9.70
2019-03-30T23:39:36.889Z,9.60
2019-03-30T23:42:06.013Z,9.60
2019-03-30T23:44:34.760Z,9.60
2019-03-30T23:47:03.868Z,9.60
2019-03-30T23:49:32.599Z,9.40
2019-03-30T23:52:01.332Z,9.30
2019-03-30T23:54:30.061Z,9.20
2019-03-30T23:56:59.085Z,9.10
2019-03-30T23:59:27.907Z,9.00
